createdAt,value
2022-09-12T00:00:08.602Z,1001.3
2022-09-12T00:01:10.804Z,1001.4
2022-09-12T00:02:12.683Z,1001.3
2022-09-12T00:03:14.440Z,1001.3
2022-09-12T00:04:15.642Z,1001.3
2022-09-12T00:05:17.632Z,1001.5
2022-09-12T00:06:22.794Z,1001.3
2022-09-12T00:07:20.451Z,1001.4
2022-09-12T00:08:21.452Z,1001.4
2022-09-12T00:09:22.857Z,1001.4
2022-09-12T00:10:24.477Z,1001
2022-09-12T00:11:25.543Z,1001.3
2022-09-12T00:12:26.657Z,1001.4
2022-09-12T00:13:28.526Z,1001.3
2022-09-12T00:14:30.453Z,1001.4
2022-09-12T00:15:31.512Z,1001.3
2022-09-12T00:16:32.509Z,1001.4
2022-09-12T00:17:34.412Z,1001.4
2022-09-12T00:18:35.499Z,1001.4
2022-09-12T00:19:36.424Z,1001.4
2022-09-12T00:20:37.419Z,1001.4
2022-09-12T00:21:38.845Z,1001.4
2022-09-12T00:22:40.672Z,1001.4
2022-09-12T00:23:42.491Z,1001.4
2022-09-12T00:24:43.473Z,1001.4
2022-09-12T00:25:44.395Z,1001.4
2022-09-12T00:26:45.932Z,1001.4
2022-09-12T00:27:47.760Z,1001.3
2022-09-12T00:28:49.612Z,1001.4
2022-09-12T00:29:51.632Z,1001.4
2022-09-12T00:30:53.492Z,1001.4
2022-09-12T00:31:55.514Z,1001.4
2022-09-12T00:32:56.452Z,1001.4
2022-09-12T00:33:57.439Z,1001.4
2022-09-12T00:34:58.426Z,1001.4
2022-09-12T00:35:59.600Z,1001.4
2022-09-12T00:37:01.512Z,1001.4
2022-09-12T00:38:02.531Z,1001.5
2022-09-12T00:39:03.431Z,1001.5
2022-09-12T00:40:04.834Z,1001.5
2022-09-12T00:41:06.472Z,1001.5
2022-09-12T00:42:07.437Z,1001.5
2022-09-12T00:43:08.533Z,1001.5
2022-09-12T00:44:09.540Z,1001.5
2022-09-12T00:45:10.520Z,1001.5
2022-09-12T00:46:11.514Z,1001.5
2022-09-12T00:47:12.543Z,1001.5
2022-09-12T00:48:13.661Z,1001.5
2022-09-12T00:49:15.498Z,1001.5
2022-09-12T00:50:16.555Z,1001.5
2022-09-12T00:51:18.465Z,1001.5
2022-09-12T00:52:19.473Z,1001.5
2022-09-12T00:53:20.553Z,1001.5
2022-09-12T00:54:21.452Z,1001.5
2022-09-12T00:55:22.595Z,1001.5
2022-09-12T00:56:23.652Z,1001.5
2022-09-12T00:57:25.511Z,1001.5
2022-09-12T00:58:26.600Z,1001.6
2022-09-12T00:59:28.640Z,1001.5
2022-09-12T01:00:30.640Z,1001.6
2022-09-12T01:04:33.575Z,1001.6
2022-09-12T01:05:35.474Z,1001.6
2022-09-12T01:06:36.399Z,1001.6
2022-09-12T01:07:39.974Z,1001.6
2022-09-12T01:08:38.396Z,1001.6
2022-09-12T01:09:39.477Z,1001.6
2022-09-12T01:10:40.514Z,1001.6
2022-09-12T01:11:41.694Z,1001.6
2022-09-12T01:12:43.845Z,1001.6
2022-09-12T01:13:45.645Z,1001.6
2022-09-12T01:14:47.564Z,1001.6
2022-09-12T01:15:48.635Z,1001.6
2022-09-12T01:16:50.733Z,1001.6
2022-09-12T01:17:52.735Z,1001.6
2022-09-12T01:18:54.615Z,1001.6
2022-09-12T01:19:55.722Z,1001.6
2022-09-12T01:20:57.783Z,1001.6
2022-09-12T01:21:59.454Z,1001.6
2022-09-12T01:23:01.154Z,1001.6
2022-09-12T01:24:02.522Z,1001.6
2022-09-12T01:25:03.534Z,1001.6
2022-09-12T01:26:05.519Z,1001.6
2022-09-12T01:27:06.458Z,1001.6
2022-09-12T01:28:07.454Z,1001.5
2022-09-12T01:29:08.461Z,1001.6
2022-09-12T01:30:09.564Z,1001.6
2022-09-12T01:31:10.634Z,1001.6
2022-09-12T01:32:12.565Z,1001.6
2022-09-12T01:33:13.554Z,1001.6
2022-09-12T01:34:14.514Z,1001.6
2022-09-12T01:35:15.554Z,1001.6
2022-09-12T01:36:16.494Z,1001.6
2022-09-12T01:37:17.454Z,1001.5
2022-09-12T01:38:18.476Z,1001.5
2022-09-12T01:39:20.455Z,1001.5
2022-09-12T01:40:21.518Z,1001.5
2022-09-12T01:41:22.474Z,1001.5
2022-09-12T01:42:23.454Z,1001.5
2022-09-12T01:43:24.497Z,1001.6
2022-09-12T01:44:25.481Z,1001.6
2022-09-12T01:45:26.518Z,1001.5
2022-09-12T01:46:27.526Z,1001.5
2022-09-12T01:47:28.685Z,1001.5
2022-09-12T01:48:30.614Z,1001.6
2022-09-12T01:49:32.706Z,1001.6
2022-09-12T01:50:34.455Z,1001.5
2022-09-12T01:51:35.595Z,1001.6
2022-09-12T01:52:36.500Z,1001.6
2022-09-12T01:53:37.434Z,1001.6
2022-09-12T01:54:38.494Z,1001.6
2022-09-12T01:55:39.454Z,1001.6
2022-09-12T01:56:40.562Z,1001.6
2022-09-12T01:57:41.601Z,1001.6
2022-09-12T01:58:43.586Z,1001.6
2022-09-12T01:59:44.642Z,1001.6
2022-09-12T02:00:46.097Z,1001.6
2022-09-12T02:01:47.673Z,1001.7
2022-09-12T02:02:49.534Z,1001.7
2022-09-12T02:03:51.568Z,1001.7
2022-09-12T02:04:53.535Z,1001.7
2022-09-12T02:05:54.602Z,1001.7
2022-09-12T02:06:55.516Z,1001.6
2022-09-12T02:07:57.054Z,1001.7
2022-09-12T02:08:58.635Z,1001.7
2022-09-12T02:10:00.695Z,1001.6
2022-09-12T02:11:02.609Z,1001.6
2022-09-12T02:12:07.023Z,1001.6
2022-09-12T02:13:08.494Z,1001.6
2022-09-12T02:14:15.515Z,1001.6
2022-09-12T02:15:16.568Z,1001.6
2022-09-12T02:16:17.602Z,1001.5
2022-09-12T02:17:18.505Z,1001.6
2022-09-12T02:18:19.458Z,1001.6
2022-09-12T02:19:20.495Z,1001.5
2022-09-12T02:20:44.248Z,1001.5
2022-09-12T02:21:22.536Z,1001.5
2022-09-12T02:22:23.555Z,1001.5
2022-09-12T02:23:25.594Z,1001.5
2022-09-12T02:24:27.794Z,1001.5
2022-09-12T02:25:29.962Z,1001.5
2022-09-12T02:26:31.615Z,1001.5
2022-09-12T02:27:33.794Z,1001.6
2022-09-12T02:28:35.734Z,1001.5
2022-09-12T02:29:37.514Z,1001.5
2022-09-12T02:30:38.566Z,1001.5
2022-09-12T02:31:39.535Z,1001.5
2022-09-12T02:32:40.516Z,1001.5
2022-09-12T02:33:41.560Z,1001.5
2022-09-12T02:34:42.562Z,1001.5
2022-09-12T02:35:43.556Z,1001.5
2022-09-12T02:36:44.514Z,1001.5
2022-09-12T02:37:45.496Z,1001.5
2022-09-12T02:38:46.704Z,1001.5
2022-09-12T02:39:47.605Z,1001.5
2022-09-12T02:40:48.542Z,1001.5
2022-09-12T02:41:49.674Z,1001.6
2022-09-12T02:42:51.474Z,1001.6
2022-09-12T02:43:52.514Z,1001.6
2022-09-12T02:44:53.514Z,1001.5
2022-09-12T02:45:54.625Z,1001.6
2022-09-12T02:46:55.574Z,1001.6
2022-09-12T02:47:56.754Z,1001.6
2022-09-12T02:48:58.894Z,1001.6
2022-09-12T02:50:00.734Z,1001.6
2022-09-12T02:51:02.635Z,1001.6
2022-09-12T02:52:04.635Z,1001.6
2022-09-12T02:53:06.535Z,1001.6
2022-09-12T02:54:07.643Z,1001.6
2022-09-12T02:55:08.462Z,1001.6
2022-09-12T02:56:09.514Z,1001.6
2022-09-12T02:57:10.535Z,1001.6
2022-09-12T02:58:11.494Z,1001.7
2022-09-12T02:59:12.578Z,1001.7
2022-09-12T03:00:13.615Z,1001.7
2022-09-12T03:01:14.625Z,1001.6
2022-09-12T03:02:15.582Z,1001.6
2022-09-12T03:03:16.555Z,1001.7
2022-09-12T03:04:17.583Z,1001.7
2022-09-12T03:05:19.597Z,1001.7
2022-09-12T03:06:20.514Z,1001.6
2022-09-12T03:07:21.475Z,1001.6
2022-09-12T03:08:22.455Z,1001.6
2022-09-12T03:09:23.514Z,1001.7
2022-09-12T03:10:24.555Z,1001.6
2022-09-12T03:11:25.522Z,1001.7
2022-09-12T03:12:26.523Z,1001.6
2022-09-12T03:13:27.634Z,1001.6
2022-09-12T03:14:28.653Z,1001.6
2022-09-12T03:15:29.663Z,1001.7
2022-09-12T03:16:31.697Z,1001.7
2022-09-12T03:17:32.534Z,1001.7
2022-09-12T03:18:33.694Z,1001.6
2022-09-12T03:19:34.535Z,1001.6
2022-09-12T03:20:35.574Z,1001.6
2022-09-12T03:21:37.515Z,1001.6
2022-09-12T03:22:38.494Z,1001.6
2022-09-12T03:23:39.459Z,1001.6
2022-09-12T03:24:40.528Z,1001.5
2022-09-12T03:25:41.574Z,1001.6
2022-09-12T03:26:42.624Z,1001.6
2022-09-12T03:27:44.615Z,1001.6
2022-09-12T03:28:45.684Z,1001.6
2022-09-12T03:29:46.722Z,1001.6
2022-09-12T03:30:48.592Z,1001.5
2022-09-12T03:31:49.603Z,1001.5
2022-09-12T03:32:51.572Z,1001.5
2022-09-12T03:33:53.634Z,1001.7
2022-09-12T03:34:55.554Z,1001.6
2022-09-12T03:35:56.561Z,1001.5
2022-09-12T03:36:57.574Z,1001.6
2022-09-12T03:37:58.582Z,1001.5
2022-09-12T03:38:59.536Z,1001.5
2022-09-12T03:40:00.631Z,1001.5
2022-09-12T03:41:02.126Z,1001.5
2022-09-12T03:42:03.582Z,1001.5
2022-09-12T03:43:04.535Z,1001.5
2022-09-12T03:44:05.583Z,1001.5
2022-09-12T03:45:06.614Z,1001.6
2022-09-12T03:46:07.674Z,1001.6
2022-09-12T03:47:11.189Z,1001.6
2022-09-12T03:48:09.655Z,1001.6
2022-09-12T03:49:10.596Z,1001
2022-09-12T03:50:11.555Z,1001.5
2022-09-12T03:51:12.537Z,1001.2
2022-09-12T03:52:13.512Z,1001.5
2022-09-12T03:53:17.171Z,1001.6
2022-09-12T03:54:15.554Z,1001.6
2022-09-12T03:55:16.594Z,1001.6
2022-09-12T03:56:17.541Z,1001.6
2022-09-12T03:57:18.514Z,1001.6
2022-09-12T03:58:19.535Z,1001.6
2022-09-12T03:59:20.574Z,1001.6
2022-09-12T04:00:21.614Z,1001.7
2022-09-12T04:01:23.020Z,1001.6
2022-09-12T04:02:24.630Z,1001.3
2022-09-12T04:03:25.674Z,1001.6
2022-09-12T04:04:27.614Z,1001.6
2022-09-12T04:05:28.814Z,1001.6
2022-09-12T04:06:30.603Z,1001.7
2022-09-12T04:07:31.534Z,1001.6
2022-09-12T04:08:32.698Z,1001.7
2022-09-12T04:09:33.520Z,1001.6
2022-09-12T04:10:34.594Z,1001.7
2022-09-12T04:11:36.635Z,1001.7
2022-09-12T04:12:37.551Z,1001.7
2022-09-12T04:13:38.535Z,1001.7
2022-09-12T04:14:39.577Z,1001.7
2022-09-12T04:15:40.635Z,1001.8
2022-09-12T04:16:41.650Z,1001.7
2022-09-12T04:17:42.560Z,1001.7
2022-09-12T04:18:43.554Z,1001.7
2022-09-12T04:19:44.542Z,1001.7
2022-09-12T04:20:45.576Z,1001.1
2022-09-12T04:21:46.643Z,1001.5
2022-09-12T04:22:47.599Z,1001.7
2022-09-12T04:23:49.673Z,1001.7
2022-09-12T04:24:51.895Z,1001.7
2022-09-12T04:25:53.755Z,1001.7
2022-09-12T04:26:55.994Z,1001.7
2022-09-12T04:27:57.694Z,1001.7
2022-09-12T04:28:58.863Z,1001.8
2022-09-12T04:30:00.574Z,1001.7
2022-09-12T04:31:01.784Z,1001.8
2022-09-12T04:32:03.754Z,1001.8
2022-09-12T04:33:08.090Z,1001.8
2022-09-12T04:34:08.054Z,1001.8
2022-09-12T04:35:09.835Z,1001.8
2022-09-12T04:36:11.820Z,1001.8
2022-09-12T04:37:13.656Z,1001.8
2022-09-12T04:38:14.594Z,1001.8
2022-09-12T04:39:15.614Z,1001.8
2022-09-12T04:40:16.662Z,1001.8
2022-09-12T04:41:17.560Z,1001.8
2022-09-12T04:42:18.774Z,1000.5
2022-09-12T04:43:21.014Z,1001.4
2022-09-12T04:44:22.575Z,1001.8
2022-09-12T04:45:23.575Z,1001.8
2022-09-12T04:46:24.578Z,1001.8
2022-09-12T04:47:25.635Z,1001.7
2022-09-12T04:48:26.592Z,1001.7
2022-09-12T04:49:27.576Z,1001.7
2022-09-12T04:50:28.935Z,1001.8
2022-09-12T04:51:30.614Z,1001.8
2022-09-12T04:52:31.815Z,1001.7
2022-09-12T04:53:33.833Z,1001.8
2022-09-12T04:54:35.796Z,1001.8
2022-09-12T04:55:37.871Z,1001.8
2022-09-12T04:56:39.537Z,1001.8
2022-09-12T04:57:40.616Z,1001.8
2022-09-12T04:58:41.582Z,1001.8
2022-09-12T04:59:42.619Z,1001.8
2022-09-12T05:00:43.640Z,1001.8
2022-09-12T05:01:44.575Z,1001.9
2022-09-12T05:02:45.615Z,1001.9
2022-09-12T05:03:47.696Z,1001.9
2022-09-12T05:04:49.718Z,1001.9
2022-09-12T05:05:55.842Z,1001.9
2022-09-12T05:06:53.663Z,1001.9
2022-09-12T05:07:54.554Z,1001.9
2022-09-12T05:08:55.614Z,1001.9
2022-09-12T05:09:56.647Z,1001.9
2022-09-12T05:10:57.635Z,1001.9
2022-09-12T05:12:04.029Z,1001.9
2022-09-12T05:13:00.613Z,1001.9
2022-09-12T05:14:01.657Z,1002
2022-09-12T05:15:03.395Z,1002
2022-09-12T05:16:04.995Z,1001.9
2022-09-12T05:17:06.755Z,1002
2022-09-12T05:18:08.574Z,1002
2022-09-12T05:19:09.738Z,1002
2022-09-12T05:20:11.576Z,1002
2022-09-12T05:21:12.552Z,1002
2022-09-12T05:22:14.194Z,1002
2022-09-12T05:23:16.256Z,1002
2022-09-12T05:24:17.555Z,1002
2022-09-12T05:25:18.834Z,1002
2022-09-12T05:26:20.563Z,1002
2022-09-12T05:27:21.595Z,1002
2022-09-12T05:28:22.655Z,1002
2022-09-12T05:29:23.581Z,1002.1
2022-09-12T05:30:24.872Z,1002
2022-09-12T05:31:26.622Z,1002
2022-09-12T05:32:27.703Z,1002
2022-09-12T05:33:28.635Z,1002
2022-09-12T05:34:29.882Z,1002
2022-09-12T05:35:31.615Z,1002
2022-09-12T05:36:32.578Z,1002.1
2022-09-12T05:37:33.636Z,1002.1
2022-09-12T05:38:34.716Z,1002.2
2022-09-12T05:39:36.677Z,1002.2
2022-09-12T05:40:38.695Z,1002.1
2022-09-12T05:41:39.594Z,1002.1
2022-09-12T05:42:40.754Z,1002.1
2022-09-12T05:43:41.803Z,1002.1
2022-09-12T05:44:44.197Z,1002.1
2022-09-12T05:45:45.782Z,1002.2
2022-09-12T05:46:47.914Z,1002.2
2022-09-12T05:47:49.716Z,1002.1
2022-09-12T05:48:55.775Z,1002.1
2022-09-12T05:49:53.643Z,1002.1
2022-09-12T05:50:54.634Z,1002.2
2022-09-12T05:51:55.635Z,1002.1
2022-09-12T05:52:56.635Z,1002.1
2022-09-12T05:53:57.609Z,1002.2
2022-09-12T05:54:58.645Z,1002.2
2022-09-12T05:55:59.655Z,1002.2
2022-09-12T05:57:00.694Z,1002.2
2022-09-12T05:58:01.675Z,1002.2
2022-09-12T05:59:02.675Z,1002.2
2022-09-12T06:00:03.723Z,1002.2
2022-09-12T06:01:04.768Z,1002
2022-09-12T06:02:05.776Z,1002.2
2022-09-12T06:03:07.715Z,1002.2
2022-09-12T06:04:08.774Z,1002.2
2022-09-12T06:05:10.897Z,1002.3
2022-09-12T06:06:12.695Z,1002.2
2022-09-12T06:07:13.674Z,1002.2
2022-09-12T06:08:15.183Z,1002.2
2022-09-12T06:09:16.807Z,1002.2
2022-09-12T06:10:18.894Z,1002.2
2022-09-12T06:11:20.934Z,1002.2
2022-09-12T06:12:22.770Z,1002.2
2022-09-12T06:13:24.863Z,1002.1
2022-09-12T06:14:26.630Z,1002.2
2022-09-12T06:15:27.655Z,1002.1
2022-09-12T06:16:28.810Z,1001.6
2022-09-12T06:17:29.694Z,1002.1
2022-09-12T06:18:30.674Z,1002.1
2022-09-12T06:19:31.636Z,1002.2
2022-09-12T06:20:32.755Z,1002.3
2022-09-12T06:21:33.714Z,1002.2
2022-09-12T06:22:34.654Z,1002.2
2022-09-12T06:23:35.654Z,1002.2
2022-09-12T06:24:36.753Z,1002.2
2022-09-12T06:25:37.795Z,1002.2
2022-09-12T06:26:39.714Z,1002.1
2022-09-12T06:27:41.114Z,1002.2
2022-09-12T06:28:42.663Z,1002.2
2022-09-12T06:29:43.977Z,1002.2
2022-09-12T06:30:45.639Z,1002.2
2022-09-12T06:31:46.654Z,1002.2
2022-09-12T06:32:47.683Z,1002.2
2022-09-12T06:33:48.695Z,1002.3
2022-09-12T06:34:49.754Z,1001.1
2022-09-12T06:35:50.699Z,1002
2022-09-12T06:36:51.694Z,1002.2
2022-09-12T06:37:52.675Z,1002.2
2022-09-12T06:38:53.676Z,1002.3
2022-09-12T06:39:54.677Z,1002.3
2022-09-12T06:40:55.655Z,1002.2
2022-09-12T06:41:56.613Z,1002.2
2022-09-12T06:42:57.615Z,1002.2
2022-09-12T06:43:58.701Z,1002.1
2022-09-12T06:44:59.734Z,1002.1
2022-09-12T06:46:00.696Z,1002.1
2022-09-12T06:47:01.768Z,1002.2
2022-09-12T06:48:02.694Z,1001.7
2022-09-12T06:49:03.775Z,1002.1
2022-09-12T06:50:04.782Z,1002.1
2022-09-12T06:51:05.817Z,1002.1
2022-09-12T06:52:07.663Z,1002.1
2022-09-12T06:53:08.694Z,1002.1
2022-09-12T06:54:09.773Z,1002.1
2022-09-12T06:55:13.440Z,1002.1
2022-09-12T06:56:13.618Z,1002.1
2022-09-12T06:57:14.731Z,1002.1
2022-09-12T06:58:15.842Z,1002.1
2022-09-12T06:59:17.682Z,1002.1
2022-09-12T07:00:18.698Z,1002.1
2022-09-12T07:01:19.847Z,1002.1
2022-09-12T07:02:20.762Z,1002.1
2022-09-12T07:03:21.734Z,1002.1
2022-09-12T07:04:22.655Z,1002.1
2022-09-12T07:05:23.654Z,1002.1
2022-09-12T07:06:24.703Z,1002.1
2022-09-12T07:07:25.683Z,1002.1
2022-09-12T07:08:26.654Z,1002.1
2022-09-12T07:09:27.675Z,1002.1
2022-09-12T07:10:28.662Z,1002.1
2022-09-12T07:11:29.784Z,1002.1
2022-09-12T07:12:30.717Z,1002.1
2022-09-12T07:13:32.534Z,1002.1
2022-09-12T07:14:33.684Z,1002.1
2022-09-12T07:15:34.655Z,1002.1
2022-09-12T07:16:35.958Z,1002.2
2022-09-12T07:17:37.674Z,1002.2
2022-09-12T07:18:38.695Z,1002.1
2022-09-12T07:19:40.050Z,1002.1
2022-09-12T07:20:41.743Z,1002.1
2022-09-12T07:21:42.739Z,1002.1
2022-09-12T07:22:43.874Z,1002.2
2022-09-12T07:23:45.776Z,1001.5
2022-09-12T07:24:46.713Z,1002
2022-09-12T07:25:47.714Z,1002.2
2022-09-12T07:26:48.694Z,1002.3
2022-09-12T07:27:51.260Z,1002.3
2022-09-12T07:28:50.634Z,1002.2
2022-09-12T07:29:51.859Z,1002.2
2022-09-12T07:30:53.727Z,1002.3
2022-09-12T07:31:54.678Z,1002.4
2022-09-12T07:32:55.694Z,1002.4
2022-09-12T07:33:56.753Z,1002.5
2022-09-12T07:34:57.834Z,1002.4
2022-09-12T07:36:00.106Z,1001.7
2022-09-12T07:37:01.885Z,1002.3
2022-09-12T07:38:03.715Z,1002.4
2022-09-12T07:39:04.835Z,1002.5
2022-09-12T07:40:05.995Z,1002.5
2022-09-12T07:41:08.094Z,1002.5
2022-09-12T07:42:10.097Z,1002.5
2022-09-12T07:43:11.794Z,1002.5
2022-09-12T07:44:12.897Z,1002.5
2022-09-12T07:45:15.102Z,1002.4
2022-09-12T07:46:16.936Z,1002.5
2022-09-12T07:47:18.715Z,1002.5
2022-09-12T07:48:19.654Z,1002.5
2022-09-12T07:49:20.613Z,1002.4
2022-09-12T07:50:21.889Z,1002.4
2022-09-12T07:51:22.933Z,1002.5
2022-09-12T07:52:25.127Z,1002.4
2022-09-12T07:53:26.814Z,1002.4
2022-09-12T07:54:28.694Z,1002.4
2022-09-12T07:55:29.963Z,1002.4
2022-09-12T07:56:34.655Z,1002.4
2022-09-12T07:57:33.715Z,1002.4
2022-09-12T07:58:34.674Z,1002.4
2022-09-12T07:59:51.839Z,1002.5
2022-09-12T08:00:36.815Z,1002.5
2022-09-12T08:01:38.867Z,1002.5
2022-09-12T08:02:41.283Z,1002.5
2022-09-12T08:03:42.710Z,1002.5
2022-09-12T08:04:43.714Z,1001.9
2022-09-12T08:05:44.700Z,1002.3
2022-09-12T08:06:45.694Z,1002.4
2022-09-12T08:07:46.786Z,1002.4
2022-09-12T08:08:47.954Z,1002.4
2022-09-12T08:09:49.802Z,1002.4
2022-09-12T08:10:50.714Z,1002.6
2022-09-12T08:11:52.974Z,1002.6
2022-09-12T08:12:54.654Z,1002.6
2022-09-12T08:13:56.113Z,1002.6
2022-09-12T08:14:56.652Z,1002.6
2022-09-12T08:15:57.747Z,1002.5
2022-09-12T08:16:58.755Z,1002.5
2022-09-12T08:17:59.815Z,1002.4
2022-09-12T08:19:01.766Z,1002.4
2022-09-12T08:20:02.714Z,1002.5
2022-09-12T08:21:03.714Z,1002.5
2022-09-12T08:22:04.774Z,1002.5
2022-09-12T08:23:05.738Z,1002.5
2022-09-12T08:24:06.794Z,1002.5
2022-09-12T08:25:08.175Z,1002.5
2022-09-12T08:26:10.282Z,1002.5
2022-09-12T08:27:12.335Z,1002.5
2022-09-12T08:28:13.874Z,1002.5
2022-09-12T08:29:15.694Z,1002.5
2022-09-12T08:30:16.874Z,1002.5
2022-09-12T08:31:18.714Z,1002.6
2022-09-12T08:32:19.822Z,1002.3
2022-09-12T08:33:21.002Z,1002.5
2022-09-12T08:34:22.782Z,1002.5
2022-09-12T08:35:23.790Z,1002.5
2022-09-12T08:36:25.071Z,1002.5
2022-09-12T08:37:26.834Z,1002.5
2022-09-12T08:38:27.766Z,1002.5
2022-09-12T08:39:28.754Z,1002.5
2022-09-12T08:40:29.814Z,1002.4
2022-09-12T08:41:30.953Z,1002.4
2022-09-12T08:42:32.796Z,1002.4
2022-09-12T08:43:34.901Z,1002.3
2022-09-12T08:44:35.700Z,1002.3
2022-09-12T08:45:36.839Z,1002.3
2022-09-12T08:46:37.918Z,1002.4
2022-09-12T08:47:39.775Z,1002.4
2022-09-12T08:48:40.894Z,1002.3
2022-09-12T08:49:42.694Z,1002.4
2022-09-12T08:50:46.671Z,1002.3
2022-09-12T08:51:44.763Z,1002.3
2022-09-12T08:52:46.316Z,1002.4
2022-09-12T08:53:47.932Z,1002.5
2022-09-12T08:54:48.737Z,1002.5
2022-09-12T08:55:49.755Z,1002.5
2022-09-12T08:56:50.707Z,1002.6
2022-09-12T08:57:51.755Z,1002.6
2022-09-12T08:58:52.795Z,1002.6
2022-09-12T08:59:54.046Z,1002.6
2022-09-12T09:00:55.750Z,1002.7
2022-09-12T09:01:56.922Z,1002.6
2022-09-12T09:02:58.817Z,1002.6
2022-09-12T09:03:59.774Z,1002.6
2022-09-12T09:05:00.754Z,1002.7
2022-09-12T09:06:01.814Z,1002.7
2022-09-12T09:07:02.816Z,1002.8
2022-09-12T09:08:03.797Z,1002.8
2022-09-12T09:09:04.825Z,1002.7
2022-09-12T09:10:05.793Z,1002.8
2022-09-12T09:11:06.774Z,1002.7
2022-09-12T09:12:07.794Z,1002.7
2022-09-12T09:13:08.754Z,1002.7
2022-09-12T09:14:10.815Z,1002.7
2022-09-12T09:15:12.774Z,1001.7
2022-09-12T09:16:13.928Z,1002.5
2022-09-12T09:17:14.814Z,1002.7
2022-09-12T09:18:15.774Z,1002.5
2022-09-12T09:19:16.714Z,1002.7
2022-09-12T09:20:17.796Z,1002.8
2022-09-12T09:21:18.775Z,1002.8
2022-09-12T09:22:19.774Z,1002.8
2022-09-12T09:23:20.714Z,1002.7
2022-09-12T09:24:21.735Z,1002.8
2022-09-12T09:25:23.095Z,1002.8
2022-09-12T09:26:23.914Z,1002.8
2022-09-12T09:27:39.685Z,1002.7
2022-09-12T09:28:26.753Z,1002.7
2022-09-12T09:29:27.717Z,1002.7
2022-09-12T09:30:28.714Z,1002.7
2022-09-12T09:31:29.951Z,1002.6
2022-09-12T09:32:31.835Z,1002.6
2022-09-12T09:33:32.773Z,1002.6
2022-09-12T09:34:33.750Z,1002.6
2022-09-12T09:35:36.599Z,1002.6
2022-09-12T09:36:35.794Z,1002.5
2022-09-12T09:37:36.794Z,1002.5
2022-09-12T09:38:37.907Z,1002.5
2022-09-12T09:39:40.009Z,1002.5
2022-09-12T09:40:42.055Z,1002.5
2022-09-12T09:41:43.734Z,1002.5
2022-09-12T09:42:45.071Z,1002.6
2022-09-12T09:43:46.755Z,1002.5
2022-09-12T09:44:47.875Z,1002.5
2022-09-12T09:45:49.022Z,1002.5
2022-09-12T09:46:50.903Z,1002.5
2022-09-12T09:47:52.934Z,1002.5
2022-09-12T09:48:54.941Z,1002.5
2022-09-12T09:49:55.795Z,1002.5
2022-09-12T09:50:56.854Z,1002.5
2022-09-12T09:52:00.066Z,1002.5
2022-09-12T09:52:58.982Z,1002.5
2022-09-12T09:54:00.774Z,1002.5
2022-09-12T09:55:01.858Z,1002.4
2022-09-12T09:56:02.914Z,1002.4
2022-09-12T09:57:05.021Z,1002.4
2022-09-12T09:58:06.833Z,1002.4
2022-09-12T09:59:07.777Z,1002.4
2022-09-12T10:00:08.795Z,1002.5
2022-09-12T10:01:10.231Z,1002.5
2022-09-12T10:02:11.918Z,1002.4
2022-09-12T10:03:14.076Z,1002.4
2022-09-12T10:04:14.835Z,1002.4
2022-09-12T10:05:15.842Z,1002.5
2022-09-12T10:06:16.794Z,1002.5
2022-09-12T10:07:17.811Z,1002.5
2022-09-12T10:08:18.802Z,1002.5
2022-09-12T10:09:20.358Z,1002.4
2022-09-12T10:10:21.800Z,1002.5
2022-09-12T10:11:22.936Z,1002.5
2022-09-12T10:12:23.764Z,1002.5
2022-09-12T10:13:24.833Z,1002.5
2022-09-12T10:14:25.816Z,1002.4
2022-09-12T10:15:26.774Z,1002.5
2022-09-12T10:16:27.736Z,1002.4
2022-09-12T10:17:33.408Z,1002.4
2022-09-12T10:18:29.934Z,1002.3
2022-09-12T10:19:31.761Z,1002.3
2022-09-12T10:20:32.774Z,1002.3
2022-09-12T10:21:33.884Z,1002.3
2022-09-12T10:22:34.755Z,1002.4
2022-09-12T10:23:36.180Z,1002.3
2022-09-12T10:24:37.990Z,1002.3
2022-09-12T10:25:39.860Z,1002.3
2022-09-12T10:26:41.334Z,1002.3
2022-09-12T10:27:42.796Z,1002.3
2022-09-12T10:28:43.794Z,1002.3
2022-09-12T10:29:44.814Z,1002.3
2022-09-12T10:30:45.834Z,1002.3
2022-09-12T10:31:46.814Z,1002.4
2022-09-12T10:32:47.780Z,1002.3
2022-09-12T10:33:48.940Z,1002.4
2022-09-12T10:34:49.994Z,1002.4
2022-09-12T10:35:51.795Z,1002.3
2022-09-12T10:36:52.775Z,1002.3
2022-09-12T10:37:53.895Z,1002.3
2022-09-12T10:38:54.754Z,1002.3
2022-09-12T10:39:55.859Z,1002.3
2022-09-12T10:40:57.021Z,1002.3
2022-09-12T10:41:58.739Z,1002.3
2022-09-12T10:42:59.816Z,1002.3
2022-09-12T10:44:00.815Z,1002.3
2022-09-12T10:45:01.895Z,1002.4
2022-09-12T10:46:02.948Z,1002.3
2022-09-12T10:47:03.776Z,1002.3
2022-09-12T10:48:07.615Z,1002.4
2022-09-12T10:49:07.214Z,1002.4
2022-09-12T10:50:08.862Z,1002.4
2022-09-12T10:51:09.994Z,1002.4
2022-09-12T10:52:11.856Z,1002.4
2022-09-12T10:53:12.755Z,1002.3
2022-09-12T10:54:13.774Z,1002.3
2022-09-12T10:55:15.075Z,1002.3
2022-09-12T10:56:17.041Z,1002.3
2022-09-12T10:57:18.755Z,1002.3
2022-09-12T10:58:20.033Z,1002.3
2022-09-12T10:59:21.754Z,1002.3
2022-09-12T11:00:22.815Z,1002.3
2022-09-12T11:01:23.908Z,1002.3
2022-09-12T11:02:24.802Z,1002.3
2022-09-12T11:03:25.739Z,1002.3
2022-09-12T11:04:26.922Z,1002.3
2022-09-12T11:05:27.795Z,1002.4
2022-09-12T11:06:28.837Z,1002.4
2022-09-12T11:07:29.894Z,1002.4
2022-09-12T11:08:30.842Z,1002.4
2022-09-12T11:09:31.843Z,1002.4
2022-09-12T11:10:36.418Z,1002.3
2022-09-12T11:11:33.938Z,1002.3
2022-09-12T11:12:34.801Z,1002.3
2022-09-12T11:13:35.834Z,1002.3
2022-09-12T11:14:37.262Z,1002.2
2022-09-12T11:15:38.881Z,1002.2
2022-09-12T11:16:42.784Z,1002.2
2022-09-12T11:17:41.877Z,1002.2
2022-09-12T11:18:43.115Z,1002.2
2022-09-12T11:19:44.884Z,1002.2
2022-09-12T11:20:46.076Z,1002.2
2022-09-12T11:21:47.816Z,1002.1
2022-09-12T11:22:48.894Z,1002.1
2022-09-12T11:23:49.983Z,1002.1
2022-09-12T11:24:51.816Z,1002.1
2022-09-12T11:25:52.794Z,1002.1
2022-09-12T11:26:53.783Z,1002.1
2022-09-12T11:27:54.834Z,1002.1
2022-09-12T11:28:55.834Z,1002.1
2022-09-12T11:29:56.834Z,1002.1
2022-09-12T11:30:57.866Z,1002.1
2022-09-12T11:31:58.855Z,1002.1
2022-09-12T11:32:59.891Z,1002.1
2022-09-12T11:34:00.794Z,1002.1
2022-09-12T11:35:01.916Z,1002.2
2022-09-12T11:36:02.874Z,1002.3
2022-09-12T11:37:06.431Z,1002.3
2022-09-12T11:38:04.855Z,1002
2022-09-12T11:39:05.855Z,1002.2
2022-09-12T11:40:07.009Z,1002.2
2022-09-12T11:41:08.794Z,1002.1
2022-09-12T11:42:09.901Z,1002.1
2022-09-12T11:43:10.815Z,1002.1
2022-09-12T11:44:11.875Z,1002.1
2022-09-12T11:45:12.874Z,1002.1
2022-09-12T11:46:13.947Z,1002.2
2022-09-12T11:47:16.416Z,1002.2
2022-09-12T11:48:17.915Z,1002.3
2022-09-12T11:49:19.975Z,1002.3
2022-09-12T11:50:20.935Z,1002.3
2022-09-12T11:51:21.893Z,1002.3
2022-09-12T11:52:23.901Z,1002.3
2022-09-12T11:53:24.876Z,1002.3
2022-09-12T11:54:25.996Z,1002.4
2022-09-12T11:55:27.914Z,1002.4
2022-09-12T11:56:28.834Z,1002.4
2022-09-12T11:57:29.891Z,1002.4
2022-09-12T11:58:30.814Z,1002.4
2022-09-12T11:59:31.774Z,1002.3
2022-09-12T12:00:32.775Z,1002.4
2022-09-12T12:01:37.485Z,1002.4
2022-09-12T12:02:34.866Z,1002.4
2022-09-12T12:03:35.776Z,1002.3
2022-09-12T12:04:36.795Z,1002.4
2022-09-12T12:05:37.814Z,1002.3
2022-09-12T12:06:38.899Z,1002.2
2022-09-12T12:07:43.387Z,1002.3
2022-09-12T12:08:41.126Z,1002.3
2022-09-12T12:09:42.855Z,1002.4
2022-09-12T12:10:44.835Z,1002.3
2022-09-12T12:11:45.890Z,1002.3
2022-09-12T12:12:47.851Z,1002.3
2022-09-12T12:13:49.884Z,1002.2
2022-09-12T12:14:50.803Z,1002.2
2022-09-12T12:15:51.952Z,1002.2
2022-09-12T12:16:53.814Z,1002.2
2022-09-12T12:17:54.874Z,1002.2
2022-09-12T12:18:55.793Z,1002.3
2022-09-12T12:19:58.403Z,1002.1
2022-09-12T12:20:57.838Z,1002.1
2022-09-12T12:21:58.884Z,1002.1
2022-09-12T12:23:00.984Z,1002.1
2022-09-12T12:24:03.015Z,1002
2022-09-12T12:25:04.854Z,1002.1
2022-09-12T12:26:05.795Z,1002
2022-09-12T12:27:06.911Z,1002
2022-09-12T12:28:09.121Z,1001.9
2022-09-12T12:29:10.875Z,1001.9
2022-09-12T12:30:11.915Z,1001.9
2022-09-12T12:31:13.529Z,1001.9
2022-09-12T12:32:14.994Z,1002
2022-09-12T12:33:15.934Z,1002
2022-09-12T12:34:16.915Z,1002.1
2022-09-12T12:35:17.848Z,1002.1
2022-09-12T12:36:18.916Z,1002.1
2022-09-12T12:37:19.878Z,1002.1
2022-09-12T12:38:20.862Z,1002.1
2022-09-12T12:39:21.902Z,1002.1
2022-09-12T12:40:23.985Z,1002.1
2022-09-12T12:41:25.916Z,1002.1
2022-09-12T12:42:26.798Z,1002.1
2022-09-12T12:43:27.859Z,1002
2022-09-12T12:44:28.915Z,1002
2022-09-12T12:45:29.934Z,1002
2022-09-12T12:46:31.086Z,1002
2022-09-12T12:47:31.934Z,1002
2022-09-12T12:48:33.048Z,1002.1
2022-09-12T12:49:35.051Z,1001.2